サルタ の空港の天気 - METARとTAF

サルタ空港 ( SASA / SLA ) - アルゼンチン サルタ州、Salta
飛行場実況気象(Metar)
観測時間05/29 14:00 ART (05/29 17:00 UTC)
風向・風速南東 2m/s
視程10km以上
天気現象
なし
気温22℃
湿度43%
気圧1014hPa
METARSASA 291700Z 14004KT CAVOK 22/09 Q1014
過去の天気等 Google飛行場航空写真 Wunderground天気予報

過去48時間のMETAR

飛行場予報(TAF)
発表時間: 5/29 08:00 ART (5/29 11:00 UTC)
予報対象時間: 29日9時 ART ~ 30日9時 ART
風向・風速不定 2m/s
視程5000m
天気現象もや
なし
29日13時 ART ~ 29日16時 ART に徐々に
風向・風速北東 5m/s
視程10km以上
天気現象運行に影響にある天気現象が終了
なし
29日21時 ART ~ 29日24時 ART に徐々に
風向・風速不定 2m/s
視程10km以上
なし
30日3時 ART ~ 30日6時 ART に徐々に
風向・風速南西 3m/s
視程5000m
天気現象もや
全天の8割程度の雲 雲底高度 180m
全天を覆う雲 雲底高度 300m
TAF SASA 291100Z 2912/3012 VRB03KT 5000 BR NSC TX25/2918Z TN10/3010Z
BECMG 2916/2919 05010KT 9999 NSW NSC
BECMG 3000/3003 VRB03KT CAVOK
BECMG 3006/3009 23005KT 5000 BR BKN006 OVC010